Time;durP1;ratioP1;P1;durP2;ratioP2;P2;SDS_P1;SDS_P2;PMS_P1;PMS_P2;Temp;Humidity;BMP_temperature;BMP_pressure;BME280_temperature;BME280_humidity;BME280_pressure;Samples;Min_cycle;Max_cycle;Signal;HPM_P1;HPM_P2
2022/06/09 00:00:05;;;;;;;68.57;29.35;;;;;;;;;;5053722;28;20099;-29
2022/06/09 00:02:31;;;;;;;79.88;33.67;;;;;;;;;;5052502;28;20056;-29
2022/06/09 00:04:57;;;;;;;77.93;27.08;;;;;;;;;;5054675;28;20049;-29
2022/06/09 00:07:24;;;;;;;60.10;23.67;;;;;;;;;;5057346;28;20045;-30
2022/06/09 00:09:55;;;;;;;90.35;32.03;;;;;;;;;;5057396;28;20132;-29
2022/06/09 00:12:22;;;;;;;119.40;34.97;;;;;;;;;;5057980;28;20045;-29
2022/06/09 00:14:48;;;;;;;103.28;32.25;;;;;;;;;;5058117;28;20045;-29
2022/06/09 00:17:14;;;;;;;61.80;23.08;;;;;;;;;;5057407;28;20057;-29
2022/06/09 00:19:40;;;;;;;90.70;26.10;;;;;;;;;;5056029;28;20088;-29
2022/06/09 00:22:06;;;;;;;62.45;22.25;;;;;;;;;;5056487;28;20045;-29
2022/06/09 00:24:32;;;;;;;82.72;27.45;;;;;;;;;;5057090;28;20053;-29
2022/06/09 00:26:58;;;;;;;86.47;28.10;;;;;;;;;;5056856;28;20049;-29
2022/06/09 00:29:24;;;;;;;80.32;27.17;;;;;;;;;;5057030;28;20480;-29
2022/06/09 00:31:50;;;;;;;64.28;24.15;;;;;;;;;;5057320;28;20135;-29
2022/06/09 00:34:17;;;;;;;61.33;25.27;;;;;;;;;;5055830;28;20096;-29
2022/06/09 00:36:43;;;;;;;70.82;26.38;;;;;;;;;;5057068;28;20505;-30
2022/06/09 00:39:09;;;;;;;69.40;25.00;;;;;;;;;;5057716;28;20132;-29
2022/06/09 00:41:39;;;;;;;69.20;27.05;;;;;;;;;;5056789;28;20045;-29
2022/06/09 00:44:18;;;;;;;70.57;27.67;;;;;;;;;;5057329;28;20056;-29
2022/06/09 00:46:47;;;;;;;88.57;27.02;;;;;;;;;;5056718;28;20045;-29
2022/06/09 00:49:19;;;;;;;68.45;25.77;;;;;;;;;;5056662;28;20041;-29
2022/06/09 00:51:49;;;;;;;74.32;26.20;;;;;;;;;;5056628;28;20114;-29
2022/06/09 00:54:24;;;;;;;99.38;32.58;;;;;;;;;;5056558;28;20135;-29
2022/06/09 00:56:52;;;;;;;78.25;26.75;;;;;;;;;;5056467;28;20049;-29
2022/06/09 00:59:20;;;;;;;81.97;29.10;;;;;;;;;;5056178;28;20503;-29
2022/06/09 01:01:46;;;;;;;109.40;31.88;;;;;;;;;;5056216;28;20049;-28
2022/06/09 01:04:14;;;;;;;120.50;36.15;;;;;;;;;;5056367;28;20059;-29
2022/06/09 01:06:42;;;;;;;111.45;34.40;;;;;;;;;;5056288;28;20114;-30
2022/06/09 01:09:15;;;;;;;83.57;28.73;;;;;;;;;;5056289;28;20049;-29
2022/06/09 01:11:42;;;;;;;112.85;31.02;;;;;;;;;;5056342;28;20056;-29
2022/06/09 01:14:12;;;;;;;116.57;34.38;;;;;;;;;;5056201;28;20510;-29
2022/06/09 01:16:45;;;;;;;102.07;29.48;;;;;;;;;;5037786;28;20064;-29
2022/06/09 01:19:14;;;;;;;124.80;32.70;;;;;;;;;;5056746;28;20443;-29
2022/06/09 01:21:58;;;;;;;126.88;34.80;;;;;;;;;;5056042;28;20053;-28
2022/06/09 01:24:24;;;;;;;104.80;32.03;;;;;;;;;;5056088;28;20049;-29
2022/06/09 01:27:10;;;;;;;128.63;34.47;;;;;;;;;;5056011;28;20049;-29
2022/06/09 01:29:43;;;;;;;112.00;34.60;;;;;;;;;;5056501;28;20049;-29
2022/06/09 01:32:20;;;;;;;97.75;32.78;;;;;;;;;;5055885;28;20045;-29
2022/06/09 01:34:55;;;;;;;118.90;35.33;;;;;;;;;;5055849;28;20479;-29
2022/06/09 01:37:23;;;;;;;116.97;37.40;;;;;;;;;;5055710;28;20045;-29
2022/06/09 01:39:57;;;;;;;103.28;35.72;;;;;;;;;;5039007;28;20048;-28
2022/06/09 01:42:28;;;;;;;119.85;38.03;;;;;;;;;;5055704;28;20060;-30
2022/06/09 01:44:56;;;;;;;75.45;28.23;;;;;;;;;;5054996;28;20044;-29
2022/06/09 01:47:24;;;;;;;94.78;31.63;;;;;;;;;;5054587;28;20136;-29
2022/06/09 01:49:52;;;;;;;103.07;38.13;;;;;;;;;;5055538;28;20049;-29
2022/06/09 01:52:19;;;;;;;116.22;39.60;;;;;;;;;;5055513;28;20453;-29
2022/06/09 01:54:46;;;;;;;117.50;39.88;;;;;;;;;;5055157;28;20494;-29
2022/06/09 01:57:14;;;;;;;100.38;39.67;;;;;;;;;;5055856;28;20132;-29
2022/06/09 01:59:53;;;;;;;77.40;31.92;;;;;;;;;;5055564;28;20383;-29
2022/06/09 02:02:21;;;;;;;100.97;40.45;;;;;;;;;;5054495;28;20057;-29
2022/06/09 02:04:47;;;;;;;104.45;43.13;;;;;;;;;;5055798;28;20045;-29
2022/06/09 02:07:14;;;;;;;73.47;34.45;;;;;;;;;;5055399;28;20135;-30
2022/06/09 02:09:41;;;;;;;83.93;34.80;;;;;;;;;;5055709;28;20045;-29
2022/06/09 02:12:12;;;;;;;94.55;37.88;;;;;;;;;;5053688;28;20511;-29
2022/06/09 02:14:39;;;;;;;92.85;38.65;;;;;;;;;;5055114;28;20048;-29
2022/06/09 02:17:06;;;;;;;84.30;33.67;;;;;;;;;;5053542;28;20099;-28
2022/06/09 02:19:33;;;;;;;89.20;36.45;;;;;;;;;;5054940;28;20544;-28
2022/06/09 02:21:59;;;;;;;76.95;34.25;;;;;;;;;;5054940;28;20053;-29
2022/06/09 02:24:25;;;;;;;86.25;34.55;;;;;;;;;;5053944;28;20384;-29
2022/06/09 02:26:51;;;;;;;102.47;38.42;;;;;;;;;;5054608;28;20227;-28
2022/06/09 02:29:17;;;;;;;102.05;40.97;;;;;;;;;;5053479;28;20083;-29
2022/06/09 02:31:43;;;;;;;81.00;34.65;;;;;;;;;;5053789;28;20059;-29
2022/06/09 02:34:10;;;;;;;99.30;40.08;;;;;;;;;;5053489;28;20428;-29
2022/06/09 02:36:36;;;;;;;122.47;42.92;;;;;;;;;;5037005;28;20055;-29
2022/06/09 02:39:03;;;;;;;102.03;39.35;;;;;;;;;;5053940;28;20174;-29
2022/06/09 02:41:29;;;;;;;90.28;37.22;;;;;;;;;;5054584;28;20049;-29
2022/06/09 02:43:55;;;;;;;108.30;43.53;;;;;;;;;;5055050;28;20048;-29
2022/06/09 02:46:21;;;;;;;125.88;45.00;;;;;;;;;;5055002;28;20083;-28
2022/06/09 02:48:47;;;;;;;80.82;33.72;;;;;;;;;;5054435;28;20053;-29
2022/06/09 02:51:14;;;;;;;112.50;43.58;;;;;;;;;;5054641;28;20056;-29
2022/06/09 02:53:40;;;;;;;133.52;46.28;;;;;;;;;;5055158;28;20091;-30
2022/06/09 02:56:06;;;;;;;126.20;44.72;;;;;;;;;;5053519;28;20438;-29
2022/06/09 02:58:32;;;;;;;104.28;41.38;;;;;;;;;;5054257;28;20076;-29
2022/06/09 03:00:58;;;;;;;104.97;38.53;;;;;;;;;;5054214;28;20135;-29
2022/06/09 03:03:24;;;;;;;93.68;37.03;;;;;;;;;;5054171;28;20044;-29
2022/06/09 03:05:51;;;;;;;83.10;35.08;;;;;;;;;;5054115;28;20045;-29
2022/06/09 03:08:17;;;;;;;105.95;41.17;;;;;;;;;;5053979;28;20049;-29
2022/06/09 03:10:43;;;;;;;79.22;35.92;;;;;;;;;;5053119;28;20044;-29
2022/06/09 03:13:09;;;;;;;123.78;45.58;;;;;;;;;;5053290;28;20593;-28
2022/06/09 03:15:35;;;;;;;108.63;40.92;;;;;;;;;;5053977;28;20107;-28
2022/06/09 03:18:01;;;;;;;100.95;39.83;;;;;;;;;;5054405;28;20096;-28
2022/06/09 03:20:29;;;;;;;121.32;45.00;;;;;;;;;;5054425;28;20094;-29
2022/06/09 03:22:55;;;;;;;114.38;40.42;;;;;;;;;;5053825;28;20475;-29
2022/06/09 03:25:21;;;;;;;138.73;46.85;;;;;;;;;;5052595;28;20084;-29
2022/06/09 03:27:47;;;;;;;78.30;33.13;;;;;;;;;;5054591;28;20041;-29
2022/06/09 03:30:13;;;;;;;80.85;36.30;;;;;;;;;;5052509;28;20407;-29
2022/06/09 03:32:39;;;;;;;142.73;49.28;;;;;;;;;;5036918;28;20044;-28
2022/06/09 03:35:07;;;;;;;132.88;49.20;;;;;;;;;;5053665;28;20094;-29
2022/06/09 03:37:33;;;;;;;129.18;47.75;;;;;;;;;;5053829;28;20055;-29
2022/06/09 03:39:59;;;;;;;99.93;40.60;;;;;;;;;;5053627;28;20045;-29
2022/06/09 03:42:25;;;;;;;96.28;38.38;;;;;;;;;;5052638;28;20049;-29
2022/06/09 03:44:51;;;;;;;120.90;45.78;;;;;;;;;;5052620;28;20163;-28
2022/06/09 03:47:17;;;;;;;122.35;47.83;;;;;;;;;;5053552;28;20079;-29
2022/06/09 03:49:43;;;;;;;102.47;42.35;;;;;;;;;;5019635;28;20060;-29
2022/06/09 03:52:09;;;;;;;97.15;42.25;;;;;;;;;;5053505;28;20052;-29
2022/06/09 03:54:35;;;;;;;93.63;41.10;;;;;;;;;;5053321;28;20053;-28
2022/06/09 03:57:01;;;;;;;99.35;43.25;;;;;;;;;;5053391;28;20049;-29
2022/06/09 03:59:27;;;;;;;96.38;39.97;;;;;;;;;;5052543;28;20545;-29
2022/06/09 04:01:53;;;;;;;85.45;38.97;;;;;;;;;;5053423;28;20040;-29
2022/06/09 04:04:20;;;;;;;79.30;35.92;;;;;;;;;;5035872;28;20111;-29
2022/06/09 04:06:46;;;;;;;65.88;32.65;;;;;;;;;;5053285;28;20124;-29
2022/06/09 04:09:16;;;;;;;79.00;37.15;;;;;;;;;;5052435;28;20131;-29
2022/06/09 04:11:43;;;;;;;80.80;38.40;;;;;;;;;;5053927;28;20056;-29
2022/06/09 04:14:09;;;;;;;92.60;44.85;;;;;;;;;;5053315;28;20045;-29
2022/06/09 04:16:39;;;;;;;68.90;38.90;;;;;;;;;;5051545;28;20525;-30
2022/06/09 04:19:07;;;;;;;65.18;35.60;;;;;;;;;;5053086;28;20056;-29
2022/06/09 04:21:34;;;;;;;88.97;43.60;;;;;;;;;;5054055;28;20106;-29
2022/06/09 04:24:01;;;;;;;78.50;38.47;;;;;;;;;;5053236;28;20049;-29
2022/06/09 04:26:28;;;;;;;86.07;41.72;;;;;;;;;;5053165;28;20123;-29
2022/06/09 04:28:54;;;;;;;61.10;32.42;;;;;;;;;;5035624;28;20052;-29
2022/06/09 04:31:21;;;;;;;75.63;39.13;;;;;;;;;;5035557;28;20051;-29
2022/06/09 04:33:48;;;;;;;70.93;37.88;;;;;;;;;;5053412;28;20509;-29
2022/06/09 04:36:15;;;;;;;80.30;42.63;;;;;;;;;;5053014;28;20053;-29
2022/06/09 04:38:41;;;;;;;82.00;42.35;;;;;;;;;;5053378;28;20076;-29
2022/06/09 04:41:09;;;;;;;78.55;39.95;;;;;;;;;;5053057;28;20119;-29
2022/06/09 04:43:42;;;;;;;72.28;39.65;;;;;;;;;;5052066;28;20045;-29
2022/06/09 04:46:10;;;;;;;77.30;41.92;;;;;;;;;;5052966;28;20110;-29
2022/06/09 04:48:36;;;;;;;68.40;39.20;;;;;;;;;;5052923;28;20080;-29
2022/06/09 04:51:05;;;;;;;70.03;39.75;;;;;;;;;;5054278;28;20095;-30
2022/06/09 04:53:31;;;;;;;75.25;44.97;;;;;;;;;;5055672;28;20067;-29
2022/06/09 04:55:57;;;;;;;61.90;38.03;;;;;;;;;;5055380;28;20045;-29
2022/06/09 04:58:23;;;;;;;70.70;44.40;;;;;;;;;;5056443;28;20059;-30
2022/06/09 05:00:49;;;;;;;92.13;48.53;;;;;;;;;;5055615;28;20114;-29
2022/06/09 05:03:15;;;;;;;70.07;39.95;;;;;;;;;;5056036;28;20370;-29
2022/06/09 05:05:43;;;;;;;87.38;44.00;;;;;;;;;;5056681;28;20106;-29
2022/06/09 05:08:11;;;;;;;92.78;46.75;;;;;;;;;;5056245;28;20045;-29
2022/06/09 05:10:38;;;;;;;86.95;44.85;;;;;;;;;;5055367;28;20045;-29
2022/06/09 05:13:06;;;;;;;72.95;41.33;;;;;;;;;;5038492;28;20375;-30
2022/06/09 05:15:33;;;;;;;79.18;41.53;;;;;;;;;;5056296;28;20053;-29
2022/06/09 05:17:59;;;;;;;77.88;41.70;;;;;;;;;;5056431;28;20418;-30
2022/06/09 05:20:25;;;;;;;87.72;42.60;;;;;;;;;;5055504;28;20394;-30
2022/06/09 05:22:52;;;;;;;74.25;40.13;;;;;;;;;;5054908;28;20498;-29
2022/06/09 05:25:19;;;;;;;67.05;39.22;;;;;;;;;;5056024;28;20092;-29
2022/06/09 05:27:45;;;;;;;57.85;34.00;;;;;;;;;;5055115;28;20124;-29
2022/06/09 05:30:13;;;;;;;69.93;39.58;;;;;;;;;;5055932;28;20051;-29
2022/06/09 05:32:39;;;;;;;63.78;38.88;;;;;;;;;;5055569;28;20402;-29
2022/06/09 05:35:06;;;;;;;62.20;39.35;;;;;;;;;;5056142;28;20045;-29
2022/06/09 05:45:47;;;;;;;51.88;34.55;;;;;;;;;;5055691;28;20044;-29
2022/06/09 05:48:13;;;;;;;60.72;36.75;;;;;;;;;;5055583;28;20095;-29
2022/06/09 05:50:39;;;;;;;48.05;31.73;;;;;;;;;;5056385;28;20076;-29
2022/06/09 05:53:05;;;;;;;41.67;31.10;;;;;;;;;;5055564;28;20110;-30
2022/06/09 05:55:31;;;;;;;43.20;29.90;;;;;;;;;;5055485;28;20052;-30
2022/06/09 05:57:57;;;;;;;37.40;28.10;;;;;;;;;;5055304;28;20041;-29
2022/06/09 06:00:24;;;;;;;44.72;29.52;;;;;;;;;;5054174;28;20052;-30
2022/06/09 06:02:50;;;;;;;38.13;27.55;;;;;;;;;;5054302;28;20041;-29
2022/06/09 06:08:01;;;;;;;38.58;27.17;;;;;;;;;;5040572;28;20048;-30
2022/06/09 06:10:28;;;;;;;38.15;28.13;;;;;;;;;;5053946;28;20052;-30
2022/06/09 06:12:54;;;;;;;38.78;28.38;;;;;;;;;;5055715;28;20052;-30
2022/06/09 06:15:20;;;;;;;37.40;27.35;;;;;;;;;;5055117;28;20088;-29
2022/06/09 06:17:46;;;;;;;35.00;25.90;;;;;;;;;;5053658;28;20061;-30
2022/06/09 06:20:12;;;;;;;38.55;29.23;;;;;;;;;;5055040;28;20064;-29
2022/06/09 06:22:38;;;;;;;38.40;29.23;;;;;;;;;;5054973;28;20106;-30
2022/06/09 06:25:06;;;;;;;26.20;22.35;;;;;;;;;;5053752;28;20106;-29
2022/06/09 06:27:32;;;;;;;29.15;23.67;;;;;;;;;;5054950;28;20053;-30
2022/06/09 06:29:58;;;;;;;30.10;24.10;;;;;;;;;;5054795;28;20490;-30
2022/06/09 06:32:24;;;;;;;31.27;24.52;;;;;;;;;;5055596;28;20049;-30
2022/06/09 06:34:50;;;;;;;26.92;20.77;;;;;;;;;;5054129;28;20047;-30
2022/06/09 06:37:16;;;;;;;24.98;21.73;;;;;;;;;;5054585;28;20041;-30
2022/06/09 06:39:42;;;;;;;26.45;21.50;;;;;;;;;;5053622;28;20520;-30
2022/06/09 06:42:09;;;;;;;24.73;20.45;;;;;;;;;;5054598;28;20041;-34
2022/06/09 06:44:35;;;;;;;23.13;19.55;;;;;;;;;;5054542;28;20048;-30
2022/06/09 06:47:01;;;;;;;21.98;19.40;;;;;;;;;;5053341;28;20090;-30
2022/06/09 06:49:27;;;;;;;20.35;18.25;;;;;;;;;;5054145;28;20487;-30
2022/06/09 06:51:53;;;;;;;23.38;20.25;;;;;;;;;;5054461;28;20087;-30
2022/06/09 06:54:19;;;;;;;18.65;16.27;;;;;;;;;;5055145;28;20048;-30
2022/06/09 06:56:45;;;;;;;21.30;18.88;;;;;;;;;;5053595;28;20052;-30
2022/06/09 06:59:11;;;;;;;21.60;17.50;;;;;;;;;;5054228;28;20502;-30
2022/06/09 07:01:37;;;;;;;19.20;16.23;;;;;;;;;;5054254;28;20367;-30
2022/06/09 07:04:03;;;;;;;20.95;15.90;;;;;;;;;;5054737;28;20383;-30
2022/06/09 07:06:29;;;;;;;16.40;14.05;;;;;;;;;;5054685;28;20048;-30
2022/06/09 07:08:55;;;;;;;19.65;14.13;;;;;;;;;;5054123;28;20083;-30
2022/06/09 07:11:22;;;;;;;13.98;10.50;;;;;;;;;;5054139;28;20049;-30
2022/06/09 07:13:49;;;;;;;9.27;6.78;;;;;;;;;;5053798;28;20099;-30
2022/06/09 07:16:15;;;;;;;8.25;6.28;;;;;;;;;;5052509;28;20151;-30
2022/06/09 07:18:41;;;;;;;8.43;7.47;;;;;;;;;;5054733;28;20048;-31
2022/06/09 07:21:07;;;;;;;12.13;8.55;;;;;;;;;;5053945;28;20505;-31
2022/06/09 07:23:35;;;;;;;10.05;7.88;;;;;;;;;;5053847;28;20045;-31
2022/06/09 07:26:01;;;;;;;9.70;7.05;;;;;;;;;;5054397;28;20045;-31
2022/06/09 07:28:28;;;;;;;6.72;3.90;;;;;;;;;;5054353;28;20077;-31
2022/06/09 07:30:56;;;;;;;10.82;5.97;;;;;;;;;;5054285;28;20067;-32
2022/06/09 07:33:23;;;;;;;8.65;4.63;;;;;;;;;;5035939;28;20045;-31
2022/06/09 07:35:51;;;;;;;6.07;4.45;;;;;;;;;;5052769;28;20098;-31
2022/06/09 07:38:18;;;;;;;9.68;4.15;;;;;;;;;;5054231;28;20072;-31
2022/06/09 07:40:44;;;;;;;9.32;4.78;;;;;;;;;;5053635;28;20067;-31
2022/06/09 07:43:11;;;;;;;8.35;5.30;;;;;;;;;;5053918;28;20091;-31
2022/06/09 07:45:37;;;;;;;9.48;5.20;;;;;;;;;;5054414;28;20122;-31
2022/06/09 07:48:04;;;;;;;7.47;3.60;;;;;;;;;;5052416;28;20049;-31
2022/06/09 07:50:31;;;;;;;6.03;4.10;;;;;;;;;;5051990;28;20084;-32
2022/06/09 07:52:58;;;;;;;5.72;4.50;;;;;;;;;;5053478;28;20083;-31
2022/06/09 07:55:24;;;;;;;10.23;4.13;;;;;;;;;;5053331;28;20469;-31
2022/06/09 07:57:51;;;;;;;5.43;3.80;;;;;;;;;;5053445;28;20044;-31
2022/06/09 08:00:17;;;;;;;4.75;3.50;;;;;;;;;;5052185;28;20052;-31
2022/06/09 08:02:44;;;;;;;6.80;3.05;;;;;;;;;;5053425;28;20041;-31
2022/06/09 08:05:10;;;;;;;7.07;3.45;;;;;;;;;;5053351;28;20434;-31
2022/06/09 08:07:37;;;;;;;5.63;1.73;;;;;;;;;;5053313;28;20409;-31
2022/06/09 08:10:04;;;;;;;6.57;1.60;;;;;;;;;;5053319;28;20135;-31
2022/06/09 08:12:30;;;;;;;3.83;1.77;;;;;;;;;;5053332;28;20099;-31
2022/06/09 08:14:56;;;;;;;4.95;1.95;;;;;;;;;;5053307;28;20056;-31
2022/06/09 08:17:22;;;;;;;4.28;1.50;;;;;;;;;;5053169;28;20053;-31
2022/06/09 08:19:49;;;;;;;5.32;2.38;;;;;;;;;;5053265;28;20049;-31
2022/06/09 08:22:15;;;;;;;4.78;1.50;;;;;;;;;;5053294;28;20406;-31
2022/06/09 08:24:41;;;;;;;6.25;1.52;;;;;;;;;;5052110;28;20045;-31
2022/06/09 08:27:07;;;;;;;4.88;1.17;;;;;;;;;;5056387;28;20128;-32
2022/06/09 08:29:33;;;;;;;2.55;0.75;;;;;;;;;;5039564;28;20052;-31
2022/06/09 08:31:59;;;;;;;2.15;0.68;;;;;;;;;;5057035;28;20052;-31
2022/06/09 08:34:26;;;;;;;4.22;1.00;;;;;;;;;;5057838;28;20044;-31
2022/06/09 08:36:52;;;;;;;4.05;1.05;;;;;;;;;;5056937;28;20049;-31
2022/06/09 08:39:21;;;;;;;3.65;1.25;;;19.20;61.20;;;;;;5056951;28;20052;-31
2022/06/09 08:42:11;;;;;;;5.00;1.00;;;19.30;1.00;;;;;;5056889;28;20041;-31
2022/06/09 08:44:55;;;;;;;6.47;1.48;;;19.30;1.00;;;;;;5057415;28;20087;-31
2022/06/09 08:47:30;;;;;;;6.57;1.38;;;19.40;1.00;;;;;;5056848;28;20045;-31
2022/06/09 08:50:11;;;;;;;9.20;1.38;;;19.50;1.00;;;;;;5056107;28;20052;-31
2022/06/09 08:52:55;;;;;;;4.53;1.10;;;19.50;1.00;;;;;;5056752;28;20045;-31
2022/06/09 08:55:38;;;;;;;5.00;1.65;;;19.30;34.00;;;;;;5057509;28;20360;-31
2022/06/09 08:58:19;;;;;;;5.50;1.20;;;19.40;99.90;;;;;;5056133;28;20045;-32
2022/06/09 09:00:54;;;;;;;6.00;1.02;;;18.80;1.00;;;;;;5057132;28;20052;-30
2022/06/09 09:03:31;;;;;;;4.85;1.10;;;19.10;99.90;;;;;;5056842;28;20045;-31
2022/06/09 09:06:07;;;;;;;10.82;1.70;;;19.30;1.00;;;;;;5055821;28;20056;-31
2022/06/09 09:08:36;;;;;;;9.45;1.33;;;19.20;20.80;;;;;;5056731;28;20067;-32
2022/06/09 09:11:05;;;;;;;4.90;1.10;;;19.30;90.90;;;;;;5056098;28;20510;-31
2022/06/09 09:13:39;;;;;;;7.10;1.15;;;19.60;1.00;;;;;;5056270;28;20102;-31
2022/06/09 09:16:30;;;;;;;6.38;0.95;;;19.70;1.00;;;;;;5056261;28;20056;-31
2022/06/09 09:19:22;;;;;;;10.10;1.50;;;19.50;1.00;;;;;;5034715;28;20053;-31
2022/06/09 09:22:00;;;;;;;5.35;1.45;;;19.30;99.90;;;;;;5057036;28;20049;-31
2022/06/09 09:24:37;;;;;;;4.40;0.82;;;19.30;99.90;;;;;;5056438;28;20049;-31
2022/06/09 09:27:03;;;;;;;8.25;1.15;;;19.40;99.90;;;;;;5056678;28;20099;-31
2022/06/09 09:29:35;;;;;;;3.58;0.88;;;19.60;1.00;;;;;;5055017;28;20052;-31
2022/06/09 09:32:12;;;;;;;3.88;0.90;;;19.80;1.00;;;;;;5054724;28;20056;-32
2022/06/09 09:34:43;;;;;;;6.57;1.77;;;19.40;99.90;;;;;;5055609;28;20132;-31
2022/06/09 09:37:29;;;;;;;6.70;1.52;;;19.20;1.00;;;;;;5054757;28;20364;-32
2022/06/09 09:39:57;;;;;;;5.70;1.25;;;19.30;1.00;;;;;;5055877;28;20140;-31
2022/06/09 09:42:29;;;;;;;6.70;1.42;;;19.20;1.00;;;;;;5055726;28;20055;-31
2022/06/09 09:44:59;;;;;;;12.30;1.80;;;19.00;1.00;;;;;;5055816;28;20055;-31
2022/06/09 09:47:28;;;;;;;5.88;1.40;;;18.80;1.00;;;;;;5054981;28;20299;-31
2022/06/09 09:49:59;;;;;;;7.18;1.05;;;19.40;43.30;;;;;;5055872;28;20044;-33
2022/06/09 09:52:39;;;;;;;3.78;1.05;;;19.70;1.00;;;;;;5056241;28;20049;-32
2022/06/09 09:55:36;;;;;;;6.38;1.08;;;19.20;1.00;;;;;;5056118;28;20051;-32
2022/06/09 09:58:25;;;;;;;6.57;1.63;;;19.50;99.90;;;;;;5055533;28;20044;-33
2022/06/09 10:00:59;;;;;;;4.80;0.82;;;19.70;99.90;;;;;;5055751;28;20056;-32
2022/06/09 10:09:43;;;;;;;8.70;1.13;;;19.60;99.90;;;;;;5055884;28;20056;-33
2022/06/09 10:12:16;;;;;;;6.75;0.88;;;20.10;1.00;;;;;;5055225;28;20049;-32
2022/06/09 10:15:12;;;;;;;7.65;1.13;;;20.10;99.90;;;;;;5055763;28;20088;-32
2022/06/09 10:18:01;;;;;;;4.95;1.63;;;19.60;99.90;;;;;;5055695;28;20056;-32
2022/06/09 10:21:01;;;;;;;7.53;1.55;;;19.30;99.90;;;;;;5038332;28;20478;-32
2022/06/09 10:23:50;;;;;;;11.52;1.92;;;19.00;1.00;;;;;;5054661;28;20084;-32
2022/06/09 10:26:36;;;;;;;8.05;1.27;;;19.50;99.90;;;;;;5055543;28;20052;-32
2022/06/09 10:29:12;;;;;;;7.45;1.30;;;19.80;99.90;;;;;;5055481;28;20056;-32
2022/06/09 10:32:03;;;;;;;6.60;1.17;;;20.10;99.90;;;;;;5054891;28;20086;-33
2022/06/09 10:34:43;;;;;;;7.30;1.05;;;20.20;99.90;;;;;;5055372;28;20063;-32
2022/06/09 10:37:27;;;;;;;5.30;1.30;;;20.10;99.90;;;;;;5054720;28;20044;-33
2022/06/09 10:40:03;;;;;;;6.28;1.40;;;20.10;99.90;;;;;;5055329;28;20053;-33
2022/06/09 10:43:02;;;;;;;7.63;1.25;;;20.40;99.90;;;;;;5054011;28;20041;-33
2022/06/09 10:45:46;;;;;;;5.43;1.67;;;20.20;99.90;;;;;;5055189;28;20041;-33
2022/06/09 10:57:36;;;;;;;5.05;1.05;;;20.90;99.90;;;;;;5054321;28;20041;-33
2022/06/09 11:00:32;;;;;;;9.40;1.40;;;21.10;99.90;;;;;;5054343;28;20053;-34
2022/06/09 11:03:03;;;;;;;5.68;1.17;;;20.80;83.40;;;;;;5054578;28;20123;-33
2022/06/09 11:05:46;;;;;;;8.75;1.40;;;21.10;99.90;;;;;;5053829;28;20376;-33
2022/06/09 11:08:33;;;;;;;4.72;0.98;;;20.80;99.90;;;;;;5054668;28;20041;-33
2022/06/09 11:11:32;;;;;;;6.82;1.23;;;20.90;64.60;;;;;;5054143;28;20053;-35
2022/06/09 11:14:25;;;;;;;4.47;1.38;;;20.30;1.00;;;;;;5053624;28;20057;-34
2022/06/09 11:17:05;;;;;;;;;;;20.10;99.90;;;;;;5054303;28;20049;-33
2022/06/09 11:19:52;;;;;;;6.47;1.20;;;20.40;99.90;;;;;;5054023;28;19927;-33
2022/06/09 11:22:44;;;;;;;4.90;1.15;;;20.50;99.40;;;;;;5053365;28;20048;-33
2022/06/09 11:25:54;;;;;;;5.57;1.38;;;20.60;5.00;;;;;;5053960;28;20048;-34
2022/06/09 11:28:23;;;;;;;3.22;0.93;;;20.30;63.60;;;;;;5052873;28;20128;-34
2022/06/09 11:30:57;;;;;;;4.47;0.82;;;20.00;99.90;;;;;;5053857;28;20084;-35
2022/06/09 11:33:41;;;;;;;3.72;0.80;;;20.10;36.60;;;;;;5054379;28;20048;-38
2022/06/09 11:36:26;;;;;;;5.88;1.48;;;20.50;1.00;;;;;;5054630;28;20045;-40
2022/06/09 11:39:17;;;;;;;4.78;1.00;;;20.70;1.00;;;;;;5054312;28;20147;-38
2022/06/09 11:41:54;;;;;;;3.47;1.00;;;20.50;1.00;;;;;;5053942;28;20522;-35
2022/06/09 11:44:28;;;;;;;4.82;0.95;;;20.70;99.90;;;;;;5053571;28;20049;-35
2022/06/09 11:47:02;;;;;;;4.57;0.98;;;20.80;1.00;;;;;;5053585;28;20041;-38
2022/06/09 11:49:44;;;;;;;3.28;1.23;;;20.70;1.00;;;;;;5053655;28;20045;-34
2022/06/09 11:52:21;;;;;;;4.53;1.10;;;20.40;1.00;;;;;;5053937;28;20110;-38
2022/06/09 11:54:50;;;;;;;4.88;1.00;;;20.40;58.90;;;;;;5053535;28;20052;-39
2022/06/09 11:57:19;;;;;;;6.18;1.13;;;20.30;1.00;;;;;;5053425;28;20103;-37
2022/06/09 12:00:03;;;;;;;5.13;1.15;;;20.60;90.80;;;;;;5053189;28;20399;-40
2022/06/09 12:03:10;;;;;;;4.78;0.73;;;20.50;1.00;;;;;;5057534;28;20103;-39
2022/06/09 12:05:47;;;;;;;6.40;0.90;;;20.60;95.30;;;;;;5057614;28;20506;-37
2022/06/09 12:08:50;;;;;;;6.07;1.25;;;20.50;60.90;;;;;;5058085;28;20434;-39
2022/06/09 12:11:25;;;;;;;5.85;1.00;;;20.50;99.90;;;;;;5015476;28;20217;-39
2022/06/09 12:14:10;;;;;;;8.35;1.10;;;20.70;1.00;;;;;;5051246;28;20398;-40
2022/06/09 12:17:02;;;;;;;4.18;1.00;;;20.80;1.00;;;;;;5057192;28;20099;-41
2022/06/09 12:19:35;;;;;;;5.35;1.48;;;20.70;1.00;;;;;;5057344;28;20056;-40
2022/06/09 12:22:31;;;;;;;5.55;1.48;;;20.90;85.50;;;;;;5057218;28;20059;-41
2022/06/09 12:25:10;;;;;;;4.38;1.02;;;21.00;33.30;;;;;;5057785;28;20048;-42
2022/06/09 12:27:42;;;;;;;6.90;1.25;;;21.00;1.00;;;;;;5057126;28;20103;-40
2022/06/09 12:30:20;;;;;;;2.58;0.65;;;21.00;8.70;;;;;;5057213;28;20048;-42
2022/06/09 12:32:49;;;;;;;5.28;1.15;;;20.70;1.00;;;;;;5057405;28;20139;-41
2022/06/09 12:35:20;;;;;;;10.15;2.05;;;20.60;1.00;;;;;;5057333;28;20135;-42
2022/06/09 12:37:59;;;;;;;5.38;1.20;;;20.60;63.00;;;;;;5056981;28;20078;-42
2022/06/09 12:40:42;;;;;;;8.98;1.42;;;20.60;1.00;;;;;;5056956;28;20131;-42
2022/06/09 12:43:21;;;;;;;4.30;1.38;;;20.30;51.90;;;;;;5056297;28;20056;-41
2022/06/09 12:46:15;;;;;;;6.90;1.70;;;19.80;83.60;;;;;;5057454;28;20045;-42
2022/06/09 12:48:41;;;;;;;5.00;1.10;;;19.40;99.90;;;;;;5056819;28;20048;-42
2022/06/09 12:51:26;;;;;;;5.72;1.27;;;19.30;99.90;;;;;;5056809;28;20044;-42
2022/06/09 12:54:04;;;;;;;6.00;1.10;;;19.80;99.90;;;;;;5056771;28;20075;-42
2022/06/09 12:56:36;;;;;;;8.50;2.05;;;19.80;1.00;;;;;;5056605;28;20045;-42
2022/06/09 12:59:34;;;;;;;3.60;0.98;;;20.10;99.90;;;;;;5056611;28;20088;-43
2022/06/09 13:02:18;;;;;;;5.38;1.02;;;20.10;1.00;;;;;;5052924;28;20052;-42
2022/06/09 13:05:15;;;;;;;5.60;0.95;;;20.40;89.70;;;;;;5057179;28;20080;-42
2022/06/09 13:08:11;;;;;;;5.32;1.20;;;20.50;1.00;;;;;;5056694;28;20044;-42
2022/06/09 13:10:40;;;;;;;5.75;1.35;;;20.50;1.00;;;;;;5038555;28;20060;-42
2022/06/09 13:13:25;;;;;;;5.88;1.20;;;20.50;1.00;;;;;;5038538;28;20053;-41
2022/06/09 13:16:00;;;;;;;4.78;1.05;;;20.20;28.40;;;;;;5056347;28;20483;-42
2022/06/09 13:18:41;;;;;;;3.83;1.00;;;20.10;1.00;;;;;;5056164;28;20064;-42
2022/06/09 13:21:31;;;;;;;4.30;0.90;;;20.20;1.00;;;;;;5056530;28;20166;-43
2022/06/09 13:24:01;;;;;;;6.70;0.90;;;20.20;1.00;;;;;;5056732;28;20041;-43
2022/06/09 13:26:43;;;;;;;4.38;0.75;;;20.20;1.00;;;;;;5055486;28;20098;-43
2022/06/09 13:29:22;;;;;;;6.63;1.00;;;20.10;1.00;;;;;;5056328;28;20471;-44
2022/06/09 13:31:50;;;;;;;4.43;0.57;;;20.30;9.40;;;;;;5055144;28;20048;-42
2022/06/09 13:34:33;;;;;;;5.55;1.17;;;20.30;1.00;;;;;;5038937;28;20057;-43
2022/06/09 13:37:14;;;;;;;2.85;0.70;;;20.30;1.00;;;;;;5055894;28;20471;-43
2022/06/09 13:40:06;;;;;;;5.38;0.90;;;19.70;1.00;;;;;;5056459;28;20041;-42
2022/06/09 13:42:51;;;;;;;3.45;0.80;;;19.40;24.00;;;;;;5054343;28;20049;-44
2022/06/09 13:45:31;;;;;;;5.88;1.27;;;19.30;12.70;;;;;;5056656;28;20075;-42
2022/06/09 13:48:12;;;;;;;4.03;0.85;;;19.70;1.00;;;;;;5055351;28;20135;-43
2022/06/09 13:50:42;;;;;;;8.43;1.00;;;20.10;1.00;;;;;;5054724;28;20107;-44
2022/06/09 13:53:30;;;;;;;3.78;0.82;;;20.10;1.00;;;;;;5055679;28;20045;-44
2022/06/09 13:55:59;;;;;;;8.90;1.63;;;19.80;1.00;;;;;;5055642;28;20049;-43
2022/06/09 13:58:24;;;;;;;3.13;0.90;;;19.90;1.00;;;;;;5054266;28;20437;-42
2022/06/09 14:00:55;;;;;;;3.10;0.85;;;20.20;62.60;;;;;;5054302;28;20049;-44
2022/06/09 14:03:38;;;;;;;5.13;1.13;;;20.30;1.00;;;;;;5055489;28;20045;-45
2022/06/09 14:06:13;;;;;;;6.75;1.73;;;20.50;1.00;;;;;;5055432;28;20045;-43
2022/06/09 14:08:46;;;;;;;4.22;1.27;;;19.90;1.00;;;;;;5037781;28;20525;-44
2022/06/09 14:11:18;;;;;;;6.00;1.30;;;19.80;1.00;;;;;;5054379;28;20052;-44
2022/06/09 14:13:51;;;;;;;6.65;1.25;;;19.50;1.00;;;;;;5038001;28;20057;-43
2022/06/09 14:16:35;;;;;;;4.10;0.90;;;19.50;49.70;;;;;;5055110;28;20057;-44
2022/06/09 14:19:02;;;;;;;3.55;1.15;;;19.40;5.60;;;;;;5054883;28;20136;-43
2022/06/09 14:21:29;;;;;;;3.75;1.13;;;19.50;99.90;;;;;;5037505;28;20414;-46
2022/06/09 14:24:07;;;;;;;3.80;1.25;;;19.90;1.00;;;;;;5053196;28;20049;-43
2022/06/09 14:26:36;;;;;;;4.85;0.75;;;20.20;1.00;;;;;;5055834;28;20057;-43
2022/06/09 14:29:12;;;;;;;3.17;0.68;;;20.40;1.00;;;;;;5053946;28;20091;-45
2022/06/09 14:31:41;;;;;;;5.68;1.38;;;20.50;1.00;;;;;;5054992;28;20060;-45
2022/06/09 14:34:14;;;;;;;5.32;1.58;;;20.50;1.00;;;;;;5054526;28;20494;-45
2022/06/09 14:36:44;;;;;;;5.43;0.70;;;20.60;1.00;;;;;;5054753;28;20052;-44